createdAt,value
2022-11-14T00:01:49.598Z,92.87
2022-11-14T00:07:21.415Z,92.79
2022-11-14T00:12:53.192Z,92.64
2022-11-14T00:18:24.919Z,92.42
2022-11-14T00:23:56.831Z,92.41
2022-11-14T00:29:28.546Z,92.49
2022-11-14T00:35:00.368Z,90.35
2022-11-14T00:40:31.933Z,91.24
2022-11-14T00:46:03.496Z,91.79
2022-11-14T00:51:35.325Z,91.76
2022-11-14T00:57:07.186Z,91.81
2022-11-14T01:02:38.929Z,91.55
2022-11-14T01:08:10.695Z,90.61
2022-11-14T01:13:42.188Z,90.34
2022-11-14T01:19:14.233Z,90.66
2022-11-14T01:24:45.832Z,91.47
2022-11-14T01:30:17.574Z,91.82
2022-11-14T01:35:49.400Z,91.63
2022-11-14T01:41:21.237Z,91.85
2022-11-14T01:46:53.253Z,92.12
2022-11-14T01:52:24.942Z,92.38
2022-11-14T01:57:56.871Z,92.36
2022-11-14T02:03:28.506Z,92.49
2022-11-14T02:09:00.743Z,92.22
2022-11-14T02:14:33.638Z,92.06
2022-11-14T02:20:05.834Z,91.73
2022-11-14T02:25:37.134Z,91.54
2022-11-14T02:31:09.152Z,91.46
2022-11-14T02:36:41.344Z,90.82
2022-11-14T02:42:13.013Z,90.76
2022-11-14T02:47:44.883Z,90.34
2022-11-14T02:53:16.587Z,90.06
2022-11-14T02:58:48.321Z,87.62
2022-11-14T03:04:20.076Z,89.24
2022-11-14T03:09:51.489Z,90.02
2022-11-14T03:15:22.830Z,89.78
2022-11-14T03:20:54.116Z,90.33
2022-11-14T03:26:25.431Z,90.59
2022-11-14T03:31:56.889Z,90.52
2022-11-14T03:37:28.675Z,90.59
2022-11-14T03:43:00.831Z,90.62
2022-11-14T03:48:32.657Z,90.40
2022-11-14T03:54:05.291Z,90.73
2022-11-14T04:05:06.579Z,91.36
2022-11-14T04:16:07.638Z,91.89
2022-11-14T04:21:39.432Z,91.95
2022-11-14T04:27:11.116Z,91.72
2022-11-14T04:32:42.905Z,92.24
2022-11-14T04:38:14.777Z,90.99
2022-11-14T04:43:50.816Z,90.52
2022-11-14T04:49:18.634Z,90.33
2022-11-14T04:54:52.482Z,91.05
2022-11-14T05:00:24.268Z,91.59
2022-11-14T05:05:55.860Z,90.96
2022-11-14T05:11:29.355Z,92.10
2022-11-14T05:16:59.605Z,90.15
2022-11-14T05:22:31.213Z,89.05
2022-11-14T05:28:03.126Z,90.04
2022-11-14T05:33:34.872Z,90.53
2022-11-14T05:39:08.956Z,91.01
2022-11-14T05:44:40.747Z,91.75
2022-11-14T05:50:12.392Z,92.18
2022-11-14T05:55:44.435Z,92.37
2022-11-14T06:01:16.100Z,92.14
2022-11-14T06:12:19.918Z,90.26
2022-11-14T06:17:51.481Z,91.31
2022-11-14T06:23:24.880Z,90.24
2022-11-14T06:28:54.897Z,89.88
2022-11-14T06:34:26.684Z,90.22
2022-11-14T06:39:58.447Z,90.57
2022-11-14T06:45:30.564Z,91.36
2022-11-14T06:51:02.152Z,91.32
2022-11-14T07:02:03.261Z,92.40
2022-11-14T07:07:35.115Z,92.03
2022-11-14T07:13:06.866Z,93.21
2022-11-14T07:18:38.536Z,93.74
2022-11-14T07:24:10.346Z,93.71
2022-11-14T07:29:42.249Z,93.70
2022-11-14T07:35:13.791Z,92.62
2022-11-14T07:40:45.947Z,92.73
2022-11-14T07:46:17.578Z,91.83
2022-11-14T07:51:49.525Z,91.44
2022-11-14T07:57:21.584Z,89.95
2022-11-14T08:02:53.484Z,90.12
2022-11-14T08:13:56.179Z,93.47
2022-11-14T08:19:27.963Z,93.23
2022-11-14T08:24:59.853Z,94.11
2022-11-14T08:30:31.698Z,93.98
2022-11-14T08:36:04.185Z,93.76
2022-11-14T08:38:27.403Z,94.09
2022-11-14T08:43:58.906Z,93.89
2022-11-14T08:55:01.647Z,93.50
2022-11-14T09:00:33.488Z,93.15
2022-11-14T09:06:05.435Z,92.38
2022-11-14T09:11:37.360Z,90.32
2022-11-14T09:17:09.363Z,92.04
2022-11-14T09:22:40.972Z,91.96
2022-11-14T09:33:44.542Z,90.88
2022-11-14T09:39:16.474Z,90.58
2022-11-14T09:44:48.303Z,89.24
2022-11-14T09:50:25.428Z,88.00
2022-11-14T09:55:59.746Z,87.88
2022-11-14T10:01:37.633Z,87.25
2022-11-14T10:07:09.183Z,86.82
2022-11-14T10:12:41.234Z,86.46
2022-11-14T10:18:19.322Z,86.34
2022-11-14T10:23:57.609Z,87.14
2022-11-14T10:29:29.802Z,86.50
2022-11-14T10:35:02.202Z,87.57
2022-11-14T10:40:34.068Z,86.18
2022-11-14T10:46:12.063Z,85.56
2022-11-14T10:51:44.526Z,85.85
2022-11-14T10:57:16.480Z,84.86
2022-11-14T11:02:48.193Z,84.50
2022-11-14T11:08:41.988Z,84.46
2022-11-14T11:13:52.646Z,84.21
2022-11-14T11:19:24.720Z,84.51
2022-11-14T11:24:56.601Z,83.85
2022-11-14T11:30:34.640Z,84.31
2022-11-14T11:36:06.487Z,83.85
2022-11-14T11:47:10.790Z,83.71
2022-11-14T11:52:42.667Z,84.03
2022-11-14T11:58:14.678Z,84.67
2022-11-14T12:03:46.907Z,84.66
2022-11-14T12:09:42.588Z,84.87
2022-11-14T12:14:57.045Z,84.88
2022-11-14T12:20:29.003Z,85.36
2022-11-14T12:26:00.930Z,85.38
2022-11-14T12:31:32.948Z,84.69
2022-11-14T12:37:05.017Z,83.18
2022-11-14T12:42:36.894Z,82.50
2022-11-14T12:48:08.775Z,83.03
2022-11-14T12:53:40.525Z,82.56
2022-11-14T12:59:12.466Z,82.51
2022-11-14T13:04:49.947Z,81.21
2022-11-14T13:15:57.237Z,80.75
2022-11-14T13:21:29.373Z,81.28
2022-11-14T13:27:01.612Z,79.67
2022-11-14T13:32:33.584Z,79.09
2022-11-14T13:38:05.643Z,80.22
2022-11-14T13:49:07.412Z,79.39
2022-11-14T13:54:39.448Z,80.44
2022-11-14T14:00:14.238Z,79.57
2022-11-14T14:05:49.791Z,80.02
2022-11-14T14:11:21.966Z,78.49
2022-11-14T14:16:53.645Z,79.08
2022-11-14T14:22:26.013Z,78.02
2022-11-14T14:27:58.008Z,78.86
2022-11-14T14:33:30.047Z,78.95
2022-11-14T14:39:02.052Z,79.54
2022-11-14T14:44:34.115Z,79.49
2022-11-14T14:50:06.395Z,81.18
2022-11-14T14:55:38.513Z,82.21
2022-11-14T15:01:10.625Z,80.63
2022-11-14T15:06:42.379Z,80.67
2022-11-14T15:12:14.121Z,81.22
2022-11-14T15:17:45.499Z,82.11
2022-11-14T15:23:17.814Z,81.92
2022-11-14T15:28:49.964Z,82.80
2022-11-14T15:34:21.717Z,82.07
2022-11-14T15:39:53.943Z,82.72
2022-11-14T15:45:26.098Z,82.54
2022-11-14T15:50:57.764Z,82.83
2022-11-14T15:56:29.592Z,82.45
2022-11-14T16:02:01.452Z,82.24
2022-11-14T16:07:33.719Z,83.15
2022-11-14T16:13:05.535Z,82.86
2022-11-14T16:18:37.590Z,83.50
2022-11-14T16:24:09.780Z,83.42
2022-11-14T16:29:41.893Z,83.48
2022-11-14T16:35:13.900Z,83.97
2022-11-14T16:40:45.935Z,84.32
2022-11-14T16:46:18.035Z,84.61
2022-11-14T16:51:50.290Z,84.06
2022-11-14T16:57:21.770Z,84.38
2022-11-14T17:02:53.992Z,84.04
2022-11-14T17:08:25.730Z,84.44
2022-11-14T17:13:57.834Z,84.77
2022-11-14T17:19:29.641Z,84.51
2022-11-14T17:25:01.589Z,84.45
2022-11-14T17:30:33.528Z,84.18
2022-11-14T17:36:05.476Z,84.61
2022-11-14T17:41:37.211Z,84.70
2022-11-14T17:47:09.105Z,84.98
2022-11-14T17:52:41.055Z,84.75
2022-11-14T17:58:13.346Z,84.87
2022-11-14T18:03:45.476Z,84.96
2022-11-14T18:09:16.952Z,85.14
2022-11-14T18:14:49.209Z,85.12
2022-11-14T18:20:20.962Z,85.19
2022-11-14T18:25:52.831Z,86.14
2022-11-14T18:31:24.981Z,85.90
2022-11-14T18:36:56.764Z,86.36
2022-11-14T18:42:28.650Z,86.39
2022-11-14T18:48:00.724Z,86.39
2022-11-14T18:53:32.890Z,86.57
2022-11-14T18:59:04.830Z,86.61
2022-11-14T19:04:36.863Z,86.68
2022-11-14T19:10:08.982Z,86.85
2022-11-14T19:15:40.977Z,87.22
2022-11-14T19:21:13.149Z,86.56
2022-11-14T19:26:45.805Z,84.68
2022-11-14T19:32:17.855Z,85.13
2022-11-14T19:37:49.931Z,86.26
2022-11-14T19:43:21.778Z,85.36
2022-11-14T19:48:53.870Z,86.00
2022-11-14T19:54:25.688Z,85.76
2022-11-14T19:59:57.829Z,86.03
2022-11-14T20:05:29.925Z,87.06
2022-11-14T20:11:01.861Z,86.88
2022-11-14T20:16:33.604Z,87.40
2022-11-14T20:24:18.770Z,86.41
2022-11-14T20:29:50.212Z,86.49
2022-11-14T20:35:21.872Z,87.11
2022-11-14T20:40:54.094Z,87.67
2022-11-14T20:46:25.813Z,87.56
2022-11-14T20:51:57.452Z,87.45
2022-11-14T20:57:29.390Z,87.46
2022-11-14T21:03:01.612Z,86.72
2022-11-14T21:08:33.697Z,87.68
2022-11-14T21:14:05.001Z,87.83
2022-11-14T21:19:37.009Z,88.52
2022-11-14T21:25:08.681Z,88.79
2022-11-14T21:30:40.356Z,88.79
2022-11-14T21:36:38.147Z,88.39
2022-11-14T21:41:44.243Z,88.98
2022-11-14T21:47:15.900Z,88.80
2022-11-14T21:52:47.670Z,88.77
2022-11-14T21:58:19.266Z,88.72
2022-11-14T22:03:51.474Z,88.66
2022-11-14T22:09:23.401Z,88.41
2022-11-14T22:14:55.091Z,87.76
2022-11-14T22:20:26.745Z,88.85
2022-11-14T22:25:58.752Z,90.11
2022-11-14T22:31:30.558Z,90.08
2022-11-14T22:37:02.481Z,88.52
2022-11-14T22:42:34.076Z,87.56
2022-11-14T22:48:05.868Z,89.45
2022-11-14T22:53:37.608Z,90.50
2022-11-14T22:59:09.517Z,89.76
2022-11-14T23:04:41.425Z,89.21
2022-11-14T23:10:13.084Z,89.42
2022-11-14T23:15:44.795Z,89.36
2022-11-14T23:21:16.718Z,89.06
2022-11-14T23:26:48.556Z,89.03
2022-11-14T23:32:20.439Z,89.11
2022-11-14T23:37:52.158Z,89.08
2022-11-14T23:43:24.015Z,88.17
2022-11-14T23:48:55.729Z,88.14
2022-11-14T23:59:56.988Z,89.67
